sensor_id;sensor_type;location;lat;lon;timestamp;temperature;humidity
1165;DHT22;571;50.930;6.926;2023-05-16T02:50:31;11.90;99.90
1165;DHT22;571;50.930;6.926;2023-05-16T02:53:00;11.90;99.90
1165;DHT22;571;50.930;6.926;2023-05-16T02:55:38;11.80;99.90
1165;DHT22;571;50.930;6.926;2023-05-16T02:59:00;11.80;99.90
1165;DHT22;571;50.930;6.926;2023-05-16T03:01:35;11.80;99.90
1165;DHT22;571;50.930;6.926;2023-05-16T03:04:17;11.80;99.90
1165;DHT22;571;50.930;6.926;2023-05-16T03:07:03;11.80;99.90
1165;DHT22;571;50.930;6.926;2023-05-16T03:09:40;11.90;99.90
1165;DHT22;571;50.930;6.926;2023-05-16T03:12:21;11.90;99.90
1165;DHT22;571;50.930;6.926;2023-05-16T03:14:54;11.90;99.90
1165;DHT22;571;50.930;6.926;2023-05-16T03:17:39;11.90;99.90
1165;DHT22;571;50.930;6.926;2023-05-16T03:20:20;11.90;99.90
1165;DHT22;571;50.930;6.926;2023-05-16T03:23:05;11.90;99.90
1165;DHT22;571;50.930;6.926;2023-05-16T03:25:38;11.90;99.90
1165;DHT22;571;50.930;6.926;2023-05-16T03:29:07;12.00;99.90
1165;DHT22;571;50.930;6.926;2023-05-16T03:31:43;12.00;99.90
1165;DHT22;571;50.930;6.926;2023-05-16T03:34:15;12.00;99.90
1165;DHT22;571;50.930;6.926;2023-05-16T03:36:51;12.10;99.90
1165;DHT22;571;50.930;6.926;2023-05-16T03:39:34;12.10;99.90
1165;DHT22;571;50.930;6.926;2023-05-16T03:42:07;12.10;99.90
1165;DHT22;571;50.930;6.926;2023-05-16T03:44:45;12.10;99.90
1165;DHT22;571;50.930;6.926;2023-05-16T03:47:17;12.10;99.90
1165;DHT22;571;50.930;6.926;2023-05-16T03:50:04;12.00;99.90
1165;DHT22;571;50.930;6.926;2023-05-16T03:52:49;12.00;99.90
1165;DHT22;571;50.930;6.926;2023-05-16T03:55:30;12.10;99.90
1165;DHT22;571;50.930;6.926;2023-05-16T03:58:28;12.00;99.90
1165;DHT22;571;50.930;6.926;2023-05-16T04:01:01;12.10;99.90
1165;DHT22;571;50.930;6.926;2023-05-16T04:09:52;12.10;99.90
1165;DHT22;571;50.930;6.926;2023-05-16T04:16:15;12.00;99.90
1165;DHT22;571;50.930;6.926;2023-05-16T04:18:48;12.10;99.90
1165;DHT22;571;50.930;6.926;2023-05-16T04:21:35;12.00;99.90
1165;DHT22;571;50.930;6.926;2023-05-16T04:24:42;12.00;99.90
1165;DHT22;571;50.930;6.926;2023-05-16T04:30:29;11.90;99.90
1165;DHT22;571;50.930;6.926;2023-05-16T04:33:47;11.90;99.90
1165;DHT22;571;50.930;6.926;2023-05-16T04:36:19;12.00;99.90
1165;DHT22;571;50.930;6.926;2023-05-16T04:39:11;12.00;99.90
1165;DHT22;571;50.930;6.926;2023-05-16T04:41:55;12.00;99.90
1165;DHT22;571;50.930;6.926;2023-05-16T04:44:39;12.00;99.90
1165;DHT22;571;50.930;6.926;2023-05-16T04:47:16;11.90;99.90
1165;DHT22;571;50.930;6.926;2023-05-16T04:50:11;12.00;99.90
1165;DHT22;571;50.930;6.926;2023-05-16T04:52:45;12.00;99.90
1165;DHT22;571;50.930;6.926;2023-05-16T04:55:15;11.90;99.90
1165;DHT22;571;50.930;6.926;2023-05-16T04:57:59;11.90;99.90
1165;DHT22;571;50.930;6.926;2023-05-16T05:00:49;11.80;99.90
1165;DHT22;571;50.930;6.926;2023-05-16T05:03:46;11.90;99.90
1165;DHT22;571;50.930;6.926;2023-05-16T05:06:16;11.80;99.90
1165;DHT22;571;50.930;6.926;2023-05-16T05:08:43;11.80;99.90
1165;DHT22;571;50.930;6.926;2023-05-16T05:15:07;11.70;99.30
1165;DHT22;571;50.930;6.926;2023-05-16T05:18:17;11.60;99.40
1165;DHT22;571;50.930;6.926;2023-05-16T05:24:31;11.60;99.10
1165;DHT22;571;50.930;6.926;2023-05-16T05:27:31;11.60;99.50
1165;DHT22;571;50.930;6.926;2023-05-16T05:34:03;11.70;99.90
1165;DHT22;571;50.930;6.926;2023-05-16T05:50:25;11.90;98.60
1165;DHT22;571;50.930;6.926;2023-05-16T05:53:03;12.00;98.70
1165;DHT22;571;50.930;6.926;2023-05-16T05:55:39;12.00;98.90
1165;DHT22;571;50.930;6.926;2023-05-16T05:58:25;12.00;98.60
1165;DHT22;571;50.930;6.926;2023-05-16T06:00:55;12.00;98.20
1165;DHT22;571;50.930;6.926;2023-05-16T06:03:36;12.00;98.30
1165;DHT22;571;50.930;6.926;2023-05-16T06:06:17;12.00;98.00
1165;DHT22;571;50.930;6.926;2023-05-16T06:08:46;12.10;98.00
1165;DHT22;571;50.930;6.926;2023-05-16T06:11:24;12.00;97.60
1165;DHT22;571;50.930;6.926;2023-05-16T06:14:03;12.10;97.70
1165;DHT22;571;50.930;6.926;2023-05-16T06:16:38;12.20;97.80
1165;DHT22;571;50.930;6.926;2023-05-16T06:19:16;12.20;97.10
1165;DHT22;571;50.930;6.926;2023-05-16T06:21:55;12.20;96.90
1165;DHT22;571;50.930;6.926;2023-05-16T06:24:29;12.30;96.90
1165;DHT22;571;50.930;6.926;2023-05-16T06:27:09;12.40;97.00
1165;DHT22;571;50.930;6.926;2023-05-16T06:29:54;12.40;97.10
1165;DHT22;571;50.930;6.926;2023-05-16T06:32:32;12.40;97.10
1165;DHT22;571;50.930;6.926;2023-05-16T06:35:17;12.50;97.00
1165;DHT22;571;50.930;6.926;2023-05-16T06:38:12;12.60;96.60
1165;DHT22;571;50.930;6.926;2023-05-16T06:40:56;12.60;96.10
1165;DHT22;571;50.930;6.926;2023-05-16T06:43:54;12.70;96.20
1165;DHT22;571;50.930;6.926;2023-05-16T06:46:24;12.70;96.50
1165;DHT22;571;50.930;6.926;2023-05-16T06:49:12;12.70;93.80
1165;DHT22;571;50.930;6.926;2023-05-16T06:51:43;12.80;95.00
1165;DHT22;571;50.930;6.926;2023-05-16T06:54:43;12.90;94.90
1165;DHT22;571;50.930;6.926;2023-05-16T06:57:32;12.90;95.10
1165;DHT22;571;50.930;6.926;2023-05-16T07:00:24;12.90;94.40
1165;DHT22;571;50.930;6.926;2023-05-16T07:03:01;13.00;93.90
1165;DHT22;571;50.930;6.926;2023-05-16T07:05:54;13.20;94.60
1165;DHT22;571;50.930;6.926;2023-05-16T07:08:37;13.10;93.40
1165;DHT22;571;50.930;6.926;2023-05-16T07:11:16;13.20;92.60
1165;DHT22;571;50.930;6.926;2023-05-16T07:13:45;13.30;93.60
1165;DHT22;571;50.930;6.926;2023-05-16T07:16:19;13.40;93.40
1165;DHT22;571;50.930;6.926;2023-05-16T07:18:52;13.50;93.20
1165;DHT22;571;50.930;6.926;2023-05-16T07:21:27;13.60;93.80
1165;DHT22;571;50.930;6.926;2023-05-16T07:24:01;13.80;93.00
1165;DHT22;571;50.930;6.926;2023-05-16T07:27:12;13.90;92.70
1165;DHT22;571;50.930;6.926;2023-05-16T07:30:12;14.00;91.50
1165;DHT22;571;50.930;6.926;2023-05-16T07:33:01;14.00;90.40
1165;DHT22;571;50.930;6.926;2023-05-16T07:35:33;14.00;90.90
1165;DHT22;571;50.930;6.926;2023-05-16T07:38:17;14.20;91.00
1165;DHT22;571;50.930;6.926;2023-05-16T07:41:18;14.30;86.90
1165;DHT22;571;50.930;6.926;2023-05-16T07:47:00;14.40;89.10
1165;DHT22;571;50.930;6.926;2023-05-16T07:50:00;14.30;90.30
1165;DHT22;571;50.930;6.926;2023-05-16T07:53:11;14.40;90.20
1165;DHT22;571;50.930;6.926;2023-05-16T07:56:21;14.40;89.80
1165;DHT22;571;50.930;6.926;2023-05-16T07:59:23;14.50;90.00
1165;DHT22;571;50.930;6.926;2023-05-16T08:02:32;14.40;90.20
1165;DHT22;571;50.930;6.926;2023-05-16T08:08:45;14.20;90.70
1165;DHT22;571;50.930;6.926;2023-05-16T08:11:50;14.10;90.30
1165;DHT22;571;50.930;6.926;2023-05-16T08:14:42;14.10;89.90
1165;DHT22;571;50.930;6.926;2023-05-16T08:20:29;14.20;91.90
1165;DHT22;571;50.930;6.926;2023-05-16T08:23:11;14.20;90.80
1165;DHT22;571;50.930;6.926;2023-05-16T08:25:42;14.10;87.40
1165;DHT22;571;50.930;6.926;2023-05-16T08:28:26;14.00;87.70
1165;DHT22;571;50.930;6.926;2023-05-16T08:31:26;14.00;86.60
1165;DHT22;571;50.930;6.926;2023-05-16T08:34:04;14.10;88.00
1165;DHT22;571;50.930;6.926;2023-05-16T08:36:43;14.00;86.60
1165;DHT22;571;50.930;6.926;2023-05-16T08:39:16;14.10;88.40
1165;DHT22;571;50.930;6.926;2023-05-16T08:42:08;14.20;88.30
1165;DHT22;571;50.930;6.926;2023-05-16T08:44:57;14.20;88.10
1165;DHT22;571;50.930;6.926;2023-05-16T08:49:03;14.20;90.10
1165;DHT22;571;50.930;6.926;2023-05-16T08:50:53;14.20;87.70
1165;DHT22;571;50.930;6.926;2023-05-16T08:53:44;14.20;87.80
1165;DHT22;571;50.930;6.926;2023-05-16T08:56:59;14.20;89.90
1165;DHT22;571;50.930;6.926;2023-05-16T08:59:51;14.40;86.80
1165;DHT22;571;50.930;6.926;2023-05-16T09:02:49;14.50;82.30
1165;DHT22;571;50.930;6.926;2023-05-16T09:05:35;14.50;83.50
1165;DHT22;571;50.930;6.926;2023-05-16T09:08:26;14.60;83.40
1165;DHT22;571;50.930;6.926;2023-05-16T09:11:33;14.70;78.50
1165;DHT22;571;50.930;6.926;2023-05-16T09:14:23;14.90;81.30
1165;DHT22;571;50.930;6.926;2023-05-16T09:21:21;15.20;78.60
1165;DHT22;571;50.930;6.926;2023-05-16T09:24:06;15.20;78.30
1165;DHT22;571;50.930;6.926;2023-05-16T09:27:26;15.20;78.40
1165;DHT22;571;50.930;6.926;2023-05-16T09:37:36;15.00;76.90
1165;DHT22;571;50.930;6.926;2023-05-16T09:40:40;15.10;78.00
1165;DHT22;571;50.930;6.926;2023-05-16T09:43:51;15.20;77.50
1165;DHT22;571;50.930;6.926;2023-05-16T09:46:54;15.30;78.40
1165;DHT22;571;50.930;6.926;2023-05-16T10:10:06;15.40;75.20
1165;DHT22;571;50.930;6.926;2023-05-16T10:41:50;16.20;69.00
1165;DHT22;571;50.930;6.926;2023-05-16T11:18:24;16.60;67.50
1165;DHT22;571;50.930;6.926;2023-05-16T11:21:07;16.70;67.80
1165;DHT22;571;50.930;6.926;2023-05-16T11:40:56;17.70;61.30
1165;DHT22;571;50.930;6.926;2023-05-16T11:44:10;17.90;58.40
1165;DHT22;571;50.930;6.926;2023-05-16T11:47:02;18.00;63.30
1165;DHT22;571;50.930;6.926;2023-05-16T11:57:05;18.50;58.30
1165;DHT22;571;50.930;6.926;2023-05-16T12:00:18;18.40;59.00
1165;DHT22;571;50.930;6.926;2023-05-16T12:03:26;18.10;57.10
1165;DHT22;571;50.930;6.926;2023-05-16T12:16:28;18.20;62.90
1165;DHT22;571;50.930;6.926;2023-05-16T12:19:25;18.30;58.70
1165;DHT22;571;50.930;6.926;2023-05-16T12:22:05;18.30;58.10
1165;DHT22;571;50.930;6.926;2023-05-16T12:27:38;18.90;59.00
1165;DHT22;571;50.930;6.926;2023-05-16T12:30:33;19.40;64.30
1165;DHT22;571;50.930;6.926;2023-05-16T12:33:36;20.00;62.40
1165;DHT22;571;50.930;6.926;2023-05-16T12:36:12;20.30;52.80
1165;DHT22;571;50.930;6.926;2023-05-16T12:42:50;21.00;53.80
1165;DHT22;571;50.930;6.926;2023-05-16T12:45:57;21.50;52.00
1165;DHT22;571;50.930;6.926;2023-05-16T12:48:45;21.80;50.70
1165;DHT22;571;50.930;6.926;2023-05-16T12:51:19;21.60;49.70
1165;DHT22;571;50.930;6.926;2023-05-16T12:54:16;21.30;50.10
1165;DHT22;571;50.930;6.926;2023-05-16T12:56:51;21.10;52.30
1165;DHT22;571;50.930;6.926;2023-05-16T12:59:22;20.80;53.50
1165;DHT22;571;50.930;6.926;2023-05-16T13:02:03;21.00;55.50
1165;DHT22;571;50.930;6.926;2023-05-16T13:04:35;21.30;54.60
1165;DHT22;571;50.930;6.926;2023-05-16T13:10:34;21.70;50.70
1165;DHT22;571;50.930;6.926;2023-05-16T13:13:22;21.90;51.40
1165;DHT22;571;50.930;6.926;2023-05-16T13:16:40;22.30;53.40
1165;DHT22;571;50.930;6.926;2023-05-16T13:19:29;22.60;51.60
1165;DHT22;571;50.930;6.926;2023-05-16T13:22:14;22.70;47.50
1165;DHT22;571;50.930;6.926;2023-05-16T13:31:59;22.30;48.00
1165;DHT22;571;50.930;6.926;2023-05-16T13:34:55;22.90;46.20
1165;DHT22;571;50.930;6.926;2023-05-16T13:41:41;23.90;43.10
1165;DHT22;571;50.930;6.926;2023-05-16T13:44:42;24.30;43.30
1165;DHT22;571;50.930;6.926;2023-05-16T14:21:15;25.40;32.40
1165;DHT22;571;50.930;6.926;2023-05-16T14:27:47;24.70;36.10
1165;DHT22;571;50.930;6.926;2023-05-16T14:31:19;25.10;35.80
1165;DHT22;571;50.930;6.926;2023-05-16T14:34:30;25.50;31.40
1165;DHT22;571;50.930;6.926;2023-05-16T15:28:10;20.80;42.70
1165;DHT22;571;50.930;6.926;2023-05-16T15:31:51;20.70;42.80
1165;DHT22;571;50.930;6.926;2023-05-16T15:36:29;20.50;42.80
1165;DHT22;571;50.930;6.926;2023-05-16T15:37:38;20.40;42.20
1165;DHT22;571;50.930;6.926;2023-05-16T15:42:04;20.10;43.90
1165;DHT22;571;50.930;6.926;2023-05-16T15:50:24;19.40;43.70
1165;DHT22;571;50.930;6.926;2023-05-16T16:23:56;19.10;44.90
1165;DHT22;571;50.930;6.926;2023-05-16T16:30:29;19.20;46.40
1165;DHT22;571;50.930;6.926;2023-05-16T16:52:39;19.40;46.50
1165;DHT22;571;50.930;6.926;2023-05-16T16:55:54;19.30;46.30
1165;DHT22;571;50.930;6.926;2023-05-16T17:02:14;18.90;47.20
1165;DHT22;571;50.930;6.926;2023-05-16T17:31:36;17.70;52.10
1165;DHT22;571;50.930;6.926;2023-05-16T17:34:36;17.60;52.90
1165;DHT22;571;50.930;6.926;2023-05-16T17:41:10;17.40;51.80
1165;DHT22;571;50.930;6.926;2023-05-16T17:51:19;17.10;53.00
1165;DHT22;571;50.930;6.926;2023-05-16T17:57:42;16.90;52.20
1165;DHT22;571;50.930;6.926;2023-05-16T18:22:24;16.50;56.00
1165;DHT22;571;50.930;6.926;2023-05-16T18:31:54;16.30;57.40
1165;DHT22;571;50.930;6.926;2023-05-16T18:37:59;16.10;57.30
1165;DHT22;571;50.930;6.926;2023-05-16T18:51:17;16.00;59.50
1165;DHT22;571;50.930;6.926;2023-05-16T18:55:35;15.90;61.30
1165;DHT22;571;50.930;6.926;2023-05-16T19:07:15;15.80;62.80
1165;DHT22;571;50.930;6.926;2023-05-16T19:10:02;15.80;62.20
1165;DHT22;571;50.930;6.926;2023-05-16T19:12:54;15.70;62.50
1165;DHT22;571;50.930;6.926;2023-05-16T19:15:48;15.60;63.40
1165;DHT22;571;50.930;6.926;2023-05-16T19:18:52;15.60;63.20
1165;DHT22;571;50.930;6.926;2023-05-16T19:21:54;15.60;62.30
1165;DHT22;571;50.930;6.926;2023-05-16T19:25:15;15.60;63.80
1165;DHT22;571;50.930;6.926;2023-05-16T19:32:02;15.50;64.10
1165;DHT22;571;50.930;6.926;2023-05-16T19:38:20;15.40;66.30
1165;DHT22;571;50.930;6.926;2023-05-16T19:45:01;15.20;66.10
1165;DHT22;571;50.930;6.926;2023-05-16T20:00:30;15.20;70.30
1165;DHT22;571;50.930;6.926;2023-05-16T20:03:22;15.20;70.90
1165;DHT22;571;50.930;6.926;2023-05-16T20:09:08;15.10;70.70
1165;DHT22;571;50.930;6.926;2023-05-16T20:11:55;15.20;71.30
1165;DHT22;571;50.930;6.926;2023-05-16T20:14:38;15.20;73.70
1165;DHT22;571;50.930;6.926;2023-05-16T20:17:29;15.20;73.30
1165;DHT22;571;50.930;6.926;2023-05-16T20:20:55;15.20;73.50
1165;DHT22;571;50.930;6.926;2023-05-16T20:23:41;15.20;72.60
1165;DHT22;571;50.930;6.926;2023-05-16T20:26:47;15.20;72.70
1165;DHT22;571;50.930;6.926;2023-05-16T20:29:52;15.10;72.80
1165;DHT22;571;50.930;6.926;2023-05-16T20:32:48;15.20;74.50
1165;DHT22;571;50.930;6.926;2023-05-16T20:35:44;15.20;76.60
1165;DHT22;571;50.930;6.926;2023-05-16T20:42:06;15.10;75.00
1165;DHT22;571;50.930;6.926;2023-05-16T20:59:28;14.80;77.10
1165;DHT22;571;50.930;6.926;2023-05-16T21:02:29;14.70;76.30
1165;DHT22;571;50.930;6.926;2023-05-16T21:05:22;14.70;76.70
1165;DHT22;571;50.930;6.926;2023-05-16T21:08:33;14.70;77.90
1165;DHT22;571;50.930;6.926;2023-05-16T21:21:59;14.60;81.90
